Terminal Aerodrome Forecast
Issued by NWS

Home | Current Version | Previous Version | Text Only | Print | Product List | Glossary On
Versions: 1 2 3 4 5 6 7 8 9 10 11 12
000
FTUS45 KPIH 262320
TAFSUN
TAF
KSUN 262320Z 2700/2806 13008KT P6SM SKC
     FM270300 31010KT P6SM SKC
     FM271900 13009KT P6SM SCT120
     FM280300 31007KT P6SM VCSH BKN080=

USA.gov is the U.S. government's official web portal to all federal, state and local government web resources and services.